Wetterdaten: Woche 12.12.16 - 18.12.16 (KW50)
Datum Zeit Temp. A. Feuchte A. Luftdruck Regen Wind Richtung Taupunkt Windchill Windben
12.12.2016 00:00 7,6 C 71 % 1017,3 hPa 0,0 l/m 11,6 km/h N 2,6 C 3,9 C 31,8 km/h
12.12.2016 01:00 7,4 C 71 % 1016,9 hPa 0,0 l/m 11,4 km/h N 2,4 C 3,9 C 29,8 km/h
12.12.2016 02:00 7,2 C 73 % 1017,2 hPa 0,0 l/m 12,1 km/h N 2,7 C 3,3 C 31,8 km/h
12.12.2016 03:00 6,5 C 78 % 1017,0 hPa 0,0 l/m 12,8 km/h N 2,9 C 2,0 C 31,4 km/h
12.12.2016 04:00 6,2 C 78 % 1016,6 hPa 0,3 l/m 11,7 km/h N 2,6 C 2,3 C 33,0 km/h
12.12.2016 05:00 5,8 C 79 % 1016,6 hPa 0,3 l/m 11,0 km/h N 2,4 C 2,3 C 33,0 km/h
12.12.2016 06:00 6,0 C 77 % 1016,7 hPa 0,0 l/m 12,4 km/h N 2,2 C 1,7 C 31,0 km/h
12.12.2016 07:00 6,2 C 76 % 1017,1 hPa 0,0 l/m 11,2 km/h N 2,4 C 2,7 C 30,2 km/h
12.12.2016 08:00 6,1 C 76 % 1017,0 hPa 0,0 l/m 9,3 km/h N 2,2 C 3,9 C 27,0 km/h
12.12.2016 09:00 6,6 C 75 % 1016,9 hPa 0,0 l/m 15,1 km/h N 2,4 C 1,1 C 40,7 km/h
12.12.2016 10:00 6,5 C 78 % 1017,8 hPa 2,6 l/m 16,4 km/h N 3,0 C 0,3 C 45,0 km/h
12.12.2016 11:00 6,5 C 80 % 1018,2 hPa 0,5 l/m 17,5 km/h N 3,3 C -0,2 C 41,4 km/h
12.12.2016 12:00 7,1 C 77 % 1018,5 hPa 0,0 l/m 17,3 km/h N 3,4 C 0,7 C 40,6 km/h
12.12.2016 13:00 7,2 C 76 % 1019,2 hPa 0,0 l/m 17,0 km/h N 3,3 C 0,9 C 34,6 km/h
12.12.2016 14:00 7,0 C 78 % 1019,6 hPa 0,0 l/m 15,2 km/h N 3,3 C 1,4 C 31,4 km/h
12.12.2016 15:00 6,9 C 78 % 1020,3 hPa 0,0 l/m 13,7 km/h N 3,3 C 2,1 C 29,4 km/h
12.12.2016 16:00 6,4 C 79 % 1021,1 hPa 0,0 l/m 13,1 km/h N 2,9 C 1,7 C 29,4 km/h
12.12.2016 17:00 6,4 C 78 % 1022,0 hPa 0,0 l/m 13,1 km/h N 2,8 C 1,8 C 27,8 km/h
12.12.2016 18:00 5,2 C 79 % 1023,5 hPa 0,3 l/m 12,2 km/h N 1,8 C 1,0 C 29,0 km/h
12.12.2016 19:00 3,9 C 81 % 1024,5 hPa 0,0 l/m 7,5 km/h N 0,9 C 2,9 C 18,5 km/h
12.12.2016 20:00 3,7 C 78 % 1025,6 hPa 0,0 l/m 6,3 km/h N 0,1 C 3,5 C 18,9 km/h
12.12.2016 21:00 2,7 C 74 % 1026,9 hPa 0,0 l/m 6,4 km/h N -1,6 C 2,3 C 19,3 km/h
12.12.2016 22:00 1,5 C 73 % 1028,3 hPa 0,0 l/m 4,9 km/h N -2,8 C 1,5 C 18,1 km/h
12.12.2016 23:00 0,3 C 68 % 1029,0 hPa 0,0 l/m 2,9 km/h N -5,0 C 0,3 C 12,5 km/h
13.12.2016 00:00 -0,6 C 67 % 1029,4 hPa 0,0 l/m 0,9 km/h N -5,9 C -0,6 C 5,6 km/h
13.12.2016 01:00 -1,5 C 68 % 1030,0 hPa 0,0 l/m 0,2 km/h N -6,6 C -1,5 C 4,0 km/h
13.12.2016 02:00 -2,2 C 70 % 1030,6 hPa 0,0 l/m 0,1 km/h N -7,0 C -2,2 C 2,4 km/h
13.12.2016 03:00 -2,7 C 71 % 1030,7 hPa 0,0 l/m 0,0 km/h N -7,2 C -2,7 C 0,0 km/h
13.12.2016 04:00 -3,6 C 74 % 1031,1 hPa 0,0 l/m 0,0 km/h N -7,5 C -3,6 C 0,0 km/h
13.12.2016 05:00 -4,5 C 77 % 1031,2 hPa 0,0 l/m 0,0 km/h N -8,0 C -4,5 C 0,0 km/h
13.12.2016 06:00 -5,2 C 79 % 1031,2 hPa 0,0 l/m 0,0 km/h N -8,3 C -5,2 C 0,0 km/h
13.12.2016 07:00 -5,6 C 81 % 1031,1 hPa 0,0 l/m 0,0 km/h N -8,4 C -5,6 C 0,0 km/h
13.12.2016 08:00 -5,3 C 83 % 1031,3 hPa 0,0 l/m 0,0 km/h N -7,8 C -5,3 C 0,0 km/h
13.12.2016 09:00 -3,7 C 83 % 1031,5 hPa 0,0 l/m 0,0 km/h N -6,2 C -3,7 C 0,0 km/h
13.12.2016 10:00 -1,9 C 81 % 1031,8 hPa 0,0 l/m 0,0 km/h N -4,7 C -1,9 C 2,0 km/h
13.12.2016 11:00 -0,8 C 73 % 1031,3 hPa 0,0 l/m 0,0 km/h N -4,9 C -0,8 C 1,6 km/h
13.12.2016 12:00 0,4 C 65 % 1030,6 hPa 0,0 l/m 0,2 km/h N -5,4 C 0,4 C 4,4 km/h
13.12.2016 13:00 1,5 C 59 % 1030,1 hPa 0,0 l/m 0,1 km/h N -5,7 C 1,5 C 3,2 km/h
13.12.2016 14:00 2,0 C 56 % 1029,9 hPa 0,0 l/m 0,4 km/h N -5,8 C 2,0 C 4,8 km/h
13.12.2016 15:00 1,5 C 60 % 1029,9 hPa 0,0 l/m 0,1 km/h N -5,5 C 1,5 C 1,6 km/h
13.12.2016 16:00 0,3 C 66 % 1029,6 hPa 0,0 l/m 0,0 km/h N -5,2 C 0,3 C 0,4 km/h
13.12.2016 17:00 -0,3 C 69 % 1029,6 hPa 0,0 l/m 0,0 km/h N -5,2 C -0,3 C 0,0 km/h
13.12.2016 18:00 -1,0 C 71 % 1029,4 hPa 0,0 l/m 0,0 km/h N -5,6 C -1,0 C 0,0 km/h
13.12.2016 19:00 -1,5 C 74 % 1029,1 hPa 0,0 l/m 0,0 km/h N -5,4 C -1,5 C 0,4 km/h
13.12.2016 20:00 -1,7 C 75 % 1028,6 hPa 0,0 l/m 0,0 km/h N -5,5 C -1,7 C 0,0 km/h
13.12.2016 21:00 -1,9 C 76 % 1028,3 hPa 0,0 l/m 0,0 km/h N -5,5 C -1,9 C 0,0 km/h
13.12.2016 22:00 -2,3 C 77 % 1028,1 hPa 0,0 l/m 0,0 km/h N -5,7 C -2,3 C 0,0 km/h
13.12.2016 23:00 -2,5 C 79 % 1027,7 hPa 0,0 l/m 0,0 km/h N -5,7 C -2,5 C 0,0 km/h
14.12.2016 00:00 -2,6 C 80 % 1027,4 hPa 0,0 l/m 0,0 km/h N -5,5 C -2,6 C 0,0 km/h
14.12.2016 01:00 -2,6 C 80 % 1027,3 hPa 0,0 l/m 0,0 km/h N -5,5 C -2,6 C 0,0 km/h
14.12.2016 02:00 -2,4 C 81 % 1026,9 hPa 0,0 l/m 0,0 km/h N -5,2 C -2,4 C 0,0 km/h
14.12.2016 03:00 -2,2 C 81 % 1026,4 hPa 0,0 l/m 0,0 km/h N -5,0 C -2,2 C 0,0 km/h
14.12.2016 04:00 -2,0 C 81 % 1026,0 hPa 0,0 l/m 0,0 km/h N -4,8 C -2,0 C 0,0 km/h
14.12.2016 05:00 -1,8 C 81 % 1025,6 hPa 0,0 l/m 0,0 km/h N -4,6 C -1,8 C 0,0 km/h
14.12.2016 06:00 -1,7 C 81 % 1025,4 hPa 0,0 l/m 0,0 km/h N -4,5 C -1,7 C 0,0 km/h
14.12.2016 07:00 -1,7 C 82 % 1025,3 hPa 0,0 l/m 0,0 km/h N -4,4 C -1,7 C 0,8 km/h
14.12.2016 08:00 -1,3 C 82 % 1025,1 hPa 0,0 l/m 0,0 km/h N -4,0 C -1,3 C 1,2 km/h
14.12.2016 09:00 -0,6 C 82 % 1025,0 hPa 0,0 l/m 0,0 km/h N -3,3 C -0,6 C 0,0 km/h
14.12.2016 10:00 -0,1 C 82 % 1025,1 hPa 0,0 l/m 0,0 km/h N -2,7 C -0,1 C 0,4 km/h
14.12.2016 11:00 0,5 C 82 % 1024,9 hPa 0,3 l/m 0,0 km/h N -2,2 C 0,5 C 0,8 km/h
14.12.2016 12:00 1,2 C 83 % 1024,2 hPa 0,0 l/m 0,0 km/h N -1,4 C 1,2 C 1,2 km/h
14.12.2016 13:00 1,7 C 82 % 1024,0 hPa 0,0 l/m 0,0 km/h N -1,1 C 1,7 C 0,4 km/h
14.12.2016 14:00 2,0 C 82 % 1023,8 hPa 0,0 l/m 0,0 km/h N -0,7 C 2,0 C 0,4 km/h
14.12.2016 15:00 1,9 C 82 % 1024,0 hPa 0,0 l/m 0,0 km/h N -0,9 C 1,9 C 0,0 km/h
14.12.2016 16:00 1,7 C 82 % 1024,3 hPa 0,0 l/m 0,0 km/h N -1,1 C 1,7 C 0,0 km/h
14.12.2016 17:00 1,7 C 82 % 1024,7 hPa 0,0 l/m 0,0 km/h N -1,0 C 1,7 C 0,8 km/h
14.12.2016 18:00 1,8 C 83 % 1025,3 hPa 0,3 l/m 0,0 km/h N -0,9 C 1,8 C 0,4 km/h
14.12.2016 19:00 3,5 C 83 % 1025,5 hPa 0,0 l/m 0,2 km/h N 0,9 C 3,5 C 4,8 km/h
14.12.2016 20:00 5,0 C 83 % 1026,1 hPa 0,0 l/m 2,0 km/h N 2,4 C 5,0 C 10,9 km/h
14.12.2016 21:00 5,3 C 83 % 1026,3 hPa 0,0 l/m 3,0 km/h N 2,7 C 5,3 C 11,7 km/h
14.12.2016 22:00 5,3 C 83 % 1026,8 hPa 0,0 l/m 1,9 km/h N 2,6 C 5,3 C 7,2 km/h
14.12.2016 23:00 4,6 C 83 % 1027,3 hPa 0,0 l/m 0,9 km/h N 2,0 C 4,6 C 4,8 km/h
15.12.2016 00:00 3,5 C 82 % 1027,4 hPa 0,0 l/m 0,0 km/h N 0,7 C 3,5 C 1,2 km/h
15.12.2016 01:00 3,6 C 83 % 1027,6 hPa 0,0 l/m 0,3 km/h N 1,0 C 3,6 C 5,2 km/h
15.12.2016 02:00 3,8 C 83 % 1028,1 hPa 0,0 l/m 1,9 km/h N 1,1 C 3,8 C 7,2 km/h
15.12.2016 03:00 3,2 C 81 % 1028,6 hPa 0,0 l/m 0,2 km/h N 0,3 C 3,2 C 5,6 km/h
15.12.2016 04:00 2,2 C 81 % 1028,9 hPa 0,0 l/m 0,0 km/h N -0,7 C 2,2 C 1,2 km/h
15.12.2016 05:00 1,3 C 83 % 1029,4 hPa 0,0 l/m 0,0 km/h N -1,4 C 1,3 C 1,2 km/h
15.12.2016 06:00 1,3 C 83 % 1029,6 hPa 0,0 l/m 0,0 km/h N -1,3 C 1,3 C 2,4 km/h
15.12.2016 07:00 0,9 C 83 % 1029,8 hPa 0,0 l/m 0,0 km/h N -1,7 C 0,9 C 0,4 km/h
15.12.2016 08:00 0,5 C 83 % 1030,2 hPa 0,0 l/m 0,0 km/h N -2,1 C 0,5 C 1,2 km/h
15.12.2016 09:00 1,7 C 83 % 1030,7 hPa 0,0 l/m 0,6 km/h N -0,9 C 1,7 C 6,8 km/h
15.12.2016 10:00 2,9 C 79 % 1031,1 hPa 0,0 l/m 3,3 km/h N -0,3 C 2,9 C 10,1 km/h
15.12.2016 11:00 3,4 C 76 % 1031,0 hPa 0,0 l/m 2,5 km/h N -0,4 C 3,4 C 8,8 km/h
15.12.2016 12:00 4,0 C 71 % 1030,6 hPa 0,0 l/m 4,1 km/h N -0,7 C 4,0 C 11,7 km/h
15.12.2016 13:00 4,2 C 69 % 1030,4 hPa 0,0 l/m 2,3 km/h N -1,0 C 4,2 C 10,1 km/h
15.12.2016 14:00 4,0 C 67 % 1030,5 hPa 0,0 l/m 1,6 km/h N -1,5 C 4,0 C 8,5 km/h
15.12.2016 15:00 3,7 C 68 % 1030,6 hPa 0,0 l/m 1,1 km/h N -1,7 C 3,7 C 8,8 km/h
15.12.2016 16:00 3,3 C 70 % 1030,8 hPa 0,0 l/m 0,8 km/h N -1,7 C 3,3 C 8,4 km/h
15.12.2016 17:00 2,8 C 73 % 1031,2 hPa 0,0 l/m 0,7 km/h N -1,6 C 2,8 C 8,0 km/h
15.12.2016 18:00 2,4 C 71 % 1031,5 hPa 0,0 l/m 1,4 km/h N -2,4 C 2,4 C 12,5 km/h
15.12.2016 19:00 2,4 C 71 % 1031,8 hPa 0,0 l/m 0,2 km/h N -2,4 C 2,4 C 3,2 km/h
15.12.2016 20:00 2,3 C 71 % 1032,0 hPa 0,0 l/m 0,4 km/h N -2,4 C 2,3 C 4,8 km/h
15.12.2016 21:00 2,0 C 72 % 1032,1 hPa 0,0 l/m 0,7 km/h N -2,4 C 2,0 C 7,7 km/h
15.12.2016 22:00 1,8 C 72 % 1032,4 hPa 0,0 l/m 0,2 km/h N -2,7 C 1,8 C 2,0 km/h
15.12.2016 23:00 1,6 C 73 % 1032,3 hPa 0,0 l/m 0,0 km/h N -2,7 C 1,6 C 1,2 km/h
16.12.2016 00:00 1,5 C 75 % 1032,6 hPa 0,0 l/m 0,0 km/h N -2,5 C 1,5 C 0,0 km/h
16.12.2016 01:00 1,3 C 76 % 1032,7 hPa 0,0 l/m 0,0 km/h N -2,5 C 1,3 C 0,0 km/h
16.12.2016 02:00 1,2 C 77 % 1032,9 hPa 0,0 l/m 0,0 km/h N -2,4 C 1,2 C 0,0 km/h
16.12.2016 03:00 1,1 C 79 % 1032,9 hPa 0,0 l/m 0,0 km/h N -2,2 C 1,1 C 0,0 km/h
16.12.2016 04:00 1,1 C 80 % 1033,2 hPa 0,0 l/m 0,0 km/h N -2,0 C 1,1 C 0,0 km/h
16.12.2016 05:00 0,9 C 80 % 1033,6 hPa 0,0 l/m 0,0 km/h N -2,2 C 0,9 C 0,0 km/h
16.12.2016 06:00 0,4 C 81 % 1034,3 hPa 0,0 l/m 0,1 km/h N -2,4 C 0,4 C 3,6 km/h
16.12.2016 07:00 -0,2 C 83 % 1034,7 hPa 0,0 l/m 0,0 km/h N -2,8 C -0,2 C 1,6 km/h
16.12.2016 08:00 -0,3 C 83 % 1035,1 hPa 0,0 l/m 0,1 km/h N -2,8 C -0,3 C 2,0 km/h
16.12.2016 09:00 0,1 C 83 % 1035,6 hPa 0,0 l/m 0,0 km/h N -2,4 C 0,1 C 2,4 km/h
16.12.2016 10:00 0,7 C 84 % 1036,0 hPa 0,0 l/m 0,2 km/h N -1,8 C 0,7 C 6,0 km/h
16.12.2016 11:00 1,6 C 82 % 1035,8 hPa 0,0 l/m 0,9 km/h N -1,1 C 1,6 C 7,2 km/h
16.12.2016 12:00 2,9 C 77 % 1035,4 hPa 0,0 l/m 0,7 km/h N -0,7 C 2,9 C 6,8 km/h
16.12.2016 13:00 3,7 C 72 % 1035,6 hPa 0,0 l/m 0,9 km/h N -1,0 C 3,7 C 7,6 km/h
16.12.2016 14:00 3,5 C 72 % 1035,8 hPa 0,0 l/m 1,1 km/h N -1,2 C 3,5 C 6,8 km/h
16.12.2016 15:00 2,6 C 75 % 1036,1 hPa 0,0 l/m 0,6 km/h N -1,4 C 2,6 C 5,2 km/h
16.12.2016 16:00 1,3 C 78 % 1036,1 hPa 0,0 l/m 0,0 km/h N -2,2 C 1,3 C 0,4 km/h
16.12.2016 17:00 -0,3 C 78 % 1036,5 hPa 0,0 l/m 0,0 km/h N -3,7 C -0,3 C 0,0 km/h
16.12.2016 18:00 -1,9 C 79 % 1036,7 hPa 0,0 l/m 0,0 km/h N -5,1 C -1,9 C 0,0 km/h
16.12.2016 19:00 -2,9 C 80 % 1037,1 hPa 0,0 l/m 0,0 km/h N -5,8 C -2,9 C 0,0 km/h
16.12.2016 20:00 -3,5 C 82 % 1037,1 hPa 0,0 l/m 0,0 km/h N -6,2 C -3,5 C 0,0 km/h
16.12.2016 21:00 -4,2 C 83 % 1037,5 hPa 0,0 l/m 0,0 km/h N -6,7 C -4,2 C 0,0 km/h
16.12.2016 22:00 -4,5 C 83 % 1037,8 hPa 0,0 l/m 0,0 km/h N -6,9 C -4,5 C 0,0 km/h
16.12.2016 23:00 -4,8 C 84 % 1037,6 hPa 0,0 l/m 0,0 km/h N -7,1 C -4,8 C 0,0 km/h
17.12.2016 00:00 -5,3 C 84 % 1037,4 hPa 0,0 l/m 0,0 km/h N -7,5 C -5,3 C 0,0 km/h
17.12.2016 01:00 -5,5 C 84 % 1037,4 hPa 0,0 l/m 0,0 km/h N -7,7 C -5,5 C 0,0 km/h
17.12.2016 02:00 -5,9 C 84 % 1037,5 hPa 0,0 l/m 0,0 km/h N -8,2 C -5,9 C 0,4 km/h
17.12.2016 03:00 -6,1 C 84 % 1037,4 hPa 0,0 l/m 0,0 km/h N -8,4 C -6,1 C 0,0 km/h
17.12.2016 04:00 -6,5 C 84 % 1037,3 hPa 0,0 l/m 0,0 km/h N -8,7 C -6,5 C 0,0 km/h
17.12.2016 05:00 -6,3 C 84 % 1037,4 hPa 0,0 l/m 0,0 km/h N -8,6 C -6,3 C 0,0 km/h
17.12.2016 06:00 -5,1 C 84 % 1037,6 hPa 0,0 l/m 0,3 km/h N -7,4 C -5,1 C 3,6 km/h
17.12.2016 07:00 -4,1 C 84 % 1038,0 hPa 0,0 l/m 1,1 km/h N -6,4 C -4,1 C 7,2 km/h
17.12.2016 08:00 -3,5 C 84 % 1038,8 hPa 0,0 l/m 2,6 km/h N -5,8 C -3,5 C 8,5 km/h
17.12.2016 09:00 -2,8 C 84 % 1039,0 hPa 0,0 l/m 0,3 km/h N -5,2 C -2,8 C 5,2 km/h
17.12.2016 10:00 -2,2 C 84 % 1039,1 hPa 0,0 l/m 0,0 km/h N -4,5 C -2,2 C 0,8 km/h
17.12.2016 11:00 -1,5 C 84 % 1038,9 hPa 0,0 l/m 0,0 km/h N -3,9 C -1,5 C 0,8 km/h
17.12.2016 12:00 -0,9 C 84 % 1038,5 hPa 0,0 l/m 0,0 km/h N -3,3 C -0,9 C 0,8 km/h
17.12.2016 13:00 -0,8 C 84 % 1038,1 hPa 0,0 l/m 0,0 km/h N -3,1 C -0,8 C 0,4 km/h
17.12.2016 14:00 -0,7 C 84 % 1038,0 hPa 0,0 l/m 0,0 km/h N -3,0 C -0,7 C 1,6 km/h
17.12.2016 15:00 -1,0 C 84 % 1038,3 hPa 0,0 l/m 0,0 km/h N -3,4 C -1,0 C 1,6 km/h
17.12.2016 16:00 -1,4 C 84 % 1038,3 hPa 0,0 l/m 0,0 km/h N -3,8 C -1,4 C 0,4 km/h
17.12.2016 17:00 -1,8 C 84 % 1038,2 hPa 0,0 l/m 0,0 km/h N -4,1 C -1,8 C 0,0 km/h
17.12.2016 18:00 -2,1 C 84 % 1038,1 hPa 0,0 l/m 0,0 km/h N -4,5 C -2,1 C 0,0 km/h
17.12.2016 19:00 -2,1 C 84 % 1037,8 hPa 0,0 l/m 1,5 km/h N -4,5 C -2,1 C 7,2 km/h
17.12.2016 20:00 -1,1 C 84 % 1037,7 hPa 0,0 l/m 8,1 km/h N -3,4 C -2,8 C 20,1 km/h
17.12.2016 21:00 -0,8 C 84 % 1037,7 hPa 0,0 l/m 7,2 km/h N -3,2 C -1,9 C 16,9 km/h
17.12.2016 22:00 -0,8 C 83 % 1037,8 hPa 0,0 l/m 3,9 km/h N -3,3 C -0,8 C 10,5 km/h
17.12.2016 23:00 -0,3 C 82 % 1037,6 hPa 0,0 l/m 0,9 km/h N -3,0 C -0,3 C 6,9 km/h
18.12.2016 00:00 -0,4 C 82 % 1037,5 hPa 0,0 l/m 1,9 km/h N -3,1 C -0,4 C 8,1 km/h
18.12.2016 01:00 -0,4 C 82 % 1037,1 hPa 0,0 l/m 0,7 km/h N -3,2 C -0,4 C 5,2 km/h
18.12.2016 02:00 -1,7 C 82 % 1037,1 hPa 0,0 l/m 0,2 km/h N -4,4 C -1,7 C 2,4 km/h
18.12.2016 03:00 -1,8 C 83 % 1036,8 hPa 0,0 l/m 0,0 km/h N -4,3 C -1,8 C 0,0 km/h
18.12.2016 04:00 -1,9 C 84 % 1036,3 hPa 0,0 l/m 0,0 km/h N -4,2 C -1,9 C 0,0 km/h
18.12.2016 05:00 -2,5 C 84 % 1035,9 hPa 0,0 l/m 0,0 km/h N -4,9 C -2,5 C 0,0 km/h
18.12.2016 06:00 -2,9 C 84 % 1035,7 hPa 0,0 l/m 0,0 km/h N -5,2 C -2,9 C 0,0 km/h
18.12.2016 07:00 -2,4 C 84 % 1035,2 hPa 0,0 l/m 0,0 km/h N -4,7 C -2,4 C 0,0 km/h
18.12.2016 08:00 -1,8 C 84 % 1035,1 hPa 0,0 l/m 0,0 km/h N -4,1 C -1,8 C 0,0 km/h
18.12.2016 09:00 -1,0 C 84 % 1035,0 hPa 0,0 l/m 0,1 km/h N -3,4 C -1,0 C 1,2 km/h
18.12.2016 10:00 -0,2 C 84 % 1034,3 hPa 0,0 l/m 0,0 km/h N -2,5 C -0,2 C 0,4 km/h
18.12.2016 11:00 0,7 C 84 % 1033,6 hPa 0,0 l/m 0,0 km/h N -1,7 C 0,7 C 0,0 km/h
18.12.2016 12:00 1,3 C 84 % 1033,0 hPa 0,0 l/m 0,0 km/h N -1,1 C 1,3 C 0,0 km/h
18.12.2016 13:00 1,3 C 84 % 1032,7 hPa 0,0 l/m 0,0 km/h N -1,1 C 1,3 C 0,0 km/h
18.12.2016 14:00 1,4 C 84 % 1032,5 hPa 0,0 l/m 0,0 km/h N -1,0 C 1,4 C 0,8 km/h
18.12.2016 15:00 1,1 C 84 % 1032,8 hPa 0,0 l/m 0,1 km/h N -1,2 C 1,1 C 2,4 km/h
18.12.2016 16:00 0,8 C 84 % 1032,7 hPa 0,0 l/m 0,0 km/h N -1,6 C 0,8 C 0,0 km/h
18.12.2016 17:00 0,7 C 84 % 1032,5 hPa 0,0 l/m 0,0 km/h N -1,7 C 0,7 C 0,0 km/h
18.12.2016 18:00 0,8 C 84 % 1032,2 hPa 0,5 l/m 0,0 km/h N -1,6 C 0,8 C 0,0 km/h
18.12.2016 19:00 0,7 C 84 % 1032,3 hPa 0,3 l/m 0,0 km/h N -1,7 C 0,7 C 0,0 km/h
18.12.2016 20:00 0,6 C 84 % 1032,6 hPa 0,0 l/m 0,0 km/h N -1,8 C 0,6 C 0,0 km/h
18.12.2016 21:00 0,4 C 84 % 1032,9 hPa 0,0 l/m 0,0 km/h N -2,0 C 0,4 C 0,0 km/h
18.12.2016 22:00 0,3 C 84 % 1033,2 hPa 0,0 l/m 0,0 km/h N -2,1 C 0,3 C 0,0 km/h
18.12.2016 23:00 0,3 C 84 % 1033,4 hPa 0,0 l/m 0,0 km/h N -2,1 C 0,3 C 1,6 km/h
Min-Datum _ 17.12.16 13.12.16 12.12.16 - 13.12.16 - 17.12.16 17.12.16 13.12.16
_ Min-Zeit 04:45 14:15 05:15 - 01:45 - 04:45 04:45 02:15
Minimum _ -6,6 C 56 % 1016,4 hPa - 0,0 km/h - -8,8 C -6,6 C 0,0 km/h
Max-Datum _ 12.12.16 16.12.16 17.12.16 12.12.16 12.12.16 - 12.12.16 14.12.16 12.12.16
_ Max-Zeit 00:00 09:30 10:15 10:45 11:00 - 12:00 21:45 10:00
Maximum _ 7,6 C 84 % 1039,1 hPa 2,6 l/m 18,7 km/h
N
- 3,6 C 5,4 C 53,1 km/h
N
Durchschnitt _ 0,6 C 79 % 1030,5 hPa #5,2 l/m 2,1 km/h N -2,7 C 0,0 C 6,5 km/h